KFLL/FLL METAR and TAF weather

Enter ICAO airport designator
Station Type Date Time Source
KFLL METAR 2023/01/30 09:53 UTC NOAA

KFLL 300953Z 13007KT 10SM FEW021 23/20 A3014 RMK AO2 SLP205 T02330200


Station Type Date Time Source
KFLL Decoded METAR 2023/01/30 09:53 UTC NOAA

FORT LAUDERDALE/HOLLYWOOD, FL, United States (KFLL) 26-04N 080-09W 30M
Jan 30, 2023 - 04:53 AM EST / 2023.01.30 0953 UTC
Wind: from the SE (130 degrees) at 8 MPH (7 KT):0
Visibility: 10 mile(s):0
Sky conditions: mostly clear
Temperature: 73.9 F (23.3 C)
Dew Point: 68.0 F (20.0 C)
Relative Humidity: 81%
Pressure (altimeter): 30.14 in. Hg (1020 hPa)
ob: KFLL 300953Z 13007KT 10SM FEW021 23/20 A3014 RMK AO2 SLP205 T02330200
cycle: 10

Station Type Date Time Source
KFLL TAF 2023/01/30 09:57 UTC NOAA

TAF
AMD KFLL 300855Z 3009/3112 11009KT P6SM FEW020
FM301600 12010KT P6SM SCT030 BKN050
FM310300 12006KT P6SM FEW030 SCT050

Example: see airport list